createdAt,value
2018-12-03T00:03:28.972Z,99211.64
2018-12-03T00:08:31.386Z,99222.66
2018-12-03T00:13:33.850Z,99239.28
2018-12-03T00:18:36.573Z,99242.29
2018-12-03T00:23:38.990Z,99236.11
2018-12-03T00:28:41.570Z,99226.16
2018-12-03T00:33:44.007Z,99206.52
2018-12-03T00:38:53.166Z,99210.77
2018-12-03T00:43:55.691Z,99222.85
2018-12-03T00:48:58.134Z,99220.44
2018-12-03T00:54:00.624Z,99211.95
2018-12-03T00:59:03.142Z,99195.36
2018-12-03T01:04:05.971Z,99188.82
2018-12-03T01:09:08.895Z,99184.55
2018-12-03T01:14:11.339Z,99182.02
2018-12-03T01:19:13.748Z,99176.81
2018-12-03T01:24:16.185Z,99209.98
2018-12-03T01:29:18.616Z,99205.22
2018-12-03T01:34:21.329Z,99200.14
2018-12-03T01:39:23.971Z,99214.18
2018-12-03T01:44:26.404Z,99223.37
2018-12-03T01:49:28.902Z,99233.58
2018-12-03T01:54:31.263Z,99244.96
2018-12-03T01:59:33.997Z,99256.46
2018-12-03T02:04:36.650Z,99254.41
2018-12-03T02:09:39.153Z,99255.25
2018-12-03T02:14:41.534Z,99250.92
2018-12-03T02:19:43.987Z,99247.41
2018-12-03T02:24:46.507Z,99253.27
2018-12-03T02:29:48.965Z,99239.87
2018-12-03T02:34:51.438Z,99242.96
2018-12-03T02:39:53.997Z,99237.25
2018-12-03T02:44:56.443Z,99231.44
2018-12-03T02:49:58.908Z,99224.44
2018-12-03T02:55:01.399Z,99216.78
2018-12-03T03:00:10.836Z,99216.66
2018-12-03T03:05:14.472Z,99209.72
2018-12-03T03:10:16.914Z,99225.59
2018-12-03T03:15:19.342Z,99224.37
2018-12-03T03:20:21.850Z,99223.64
2018-12-03T03:25:24.324Z,99216.84
2018-12-03T03:30:26.733Z,99215.02
2018-12-03T03:35:29.293Z,99217.27
2018-12-03T03:40:32.347Z,99218.95
2018-12-03T03:45:35.148Z,99221.84
2018-12-03T03:50:37.745Z,99219.44
2018-12-03T03:55:40.537Z,99221.64
2018-12-03T04:00:43.495Z,99211.20
2018-12-03T04:05:46.229Z,99201.73
2018-12-03T04:10:48.898Z,99202.22
2018-12-03T04:15:52.519Z,99207.55
2018-12-03T04:20:55.154Z,99195.56
2018-12-03T04:25:57.726Z,99186.98
2018-12-03T04:31:00.351Z,99197.16
2018-12-03T04:36:03.223Z,99236.44
2018-12-03T04:41:05.877Z,99246.98
2018-12-03T04:46:08.541Z,99264.94
2018-12-03T04:51:11.194Z,99266.41
2018-12-03T04:56:13.908Z,99266.65
2018-12-03T05:01:16.588Z,99265.43
2018-12-03T05:06:19.266Z,99262.30
2018-12-03T05:11:21.742Z,99262.65
2018-12-03T05:16:24.194Z,99262.17
2018-12-03T05:21:26.704Z,99245.31
2018-12-03T05:26:29.251Z,99222.38
2018-12-03T05:31:31.830Z,99230.98
2018-12-03T05:36:34.298Z,99227.71
2018-12-03T05:41:36.750Z,99254.36
2018-12-03T05:46:39.258Z,99237.52
2018-12-03T05:51:41.708Z,99230.50
2018-12-03T05:56:44.182Z,99235.97
2018-12-03T06:01:46.706Z,99222.38
2018-12-03T06:06:49.165Z,99250.50
2018-12-03T06:11:51.570Z,99251.36
2018-12-03T06:16:54.122Z,99250.64
2018-12-03T06:21:56.535Z,99265.18
2018-12-03T06:26:59.823Z,99258.78
2018-12-03T06:32:02.647Z,99256.11
2018-12-03T06:37:12.498Z,99245.09
2018-12-03T06:42:15.141Z,99253.18
2018-12-03T06:47:17.625Z,99255.77
2018-12-03T06:52:19.989Z,99240.00
2018-12-03T06:57:22.391Z,99244.13
2018-12-03T07:02:24.857Z,99251.78
2018-12-03T07:07:27.878Z,99265.25
2018-12-03T07:12:30.302Z,99259.79
2018-12-03T07:17:32.729Z,99263.56
2018-12-03T07:22:35.137Z,99267.22
2018-12-03T07:27:37.598Z,99269.13
2018-12-03T07:32:40.052Z,99266.23
2018-12-03T07:37:42.790Z,99269.75
2018-12-03T07:42:45.294Z,99269.98
2018-12-03T07:47:48.241Z,99275.17
2018-12-03T07:52:51.867Z,99272.77
2018-12-03T07:57:58.698Z,99269.25
2018-12-03T08:03:01.182Z,99272.41
2018-12-03T08:08:03.668Z,99274.94
2018-12-03T08:13:08.076Z,99275.92
2018-12-03T08:18:13.406Z,99275.23
2018-12-03T08:23:19.546Z,99291.12
2018-12-03T08:28:21.930Z,99294.19
2018-12-03T08:33:24.367Z,99297.48
2018-12-03T08:38:26.778Z,99288.53
2018-12-03T08:43:29.222Z,99284.63
2018-12-03T08:48:35.490Z,99279.69
2018-12-03T08:53:38.072Z,99285.51
2018-12-03T08:58:41.943Z,99286.22
2018-12-03T09:03:47.691Z,99280.04
2018-12-03T09:08:50.956Z,99283.67
2018-12-03T09:13:53.699Z,99301.02
2018-12-03T09:18:56.105Z,99300.31
2018-12-03T09:23:59.896Z,99300.56
2018-12-03T09:29:02.398Z,99294.60
2018-12-03T09:34:05.330Z,99298.11
2018-12-03T09:39:13.762Z,99296.55
2018-12-03T09:44:16.168Z,99292.30
2018-12-03T09:49:18.534Z,99290.34
2018-12-03T09:54:20.926Z,99295.33
2018-12-03T09:59:24.002Z,99289.14
2018-12-03T10:04:29.216Z,99282.95
2018-12-03T10:09:35.814Z,99273.62
2018-12-03T10:14:38.336Z,99284.78
2018-12-03T10:19:40.698Z,99274.20
2018-12-03T10:24:43.156Z,99269.84
2018-12-03T10:29:45.559Z,99266.34
2018-12-03T10:34:48.079Z,99254.69
2018-12-03T10:39:51.114Z,99247.88
2018-12-03T10:44:53.474Z,99238.56
2018-12-03T10:49:56.852Z,99236.47
2018-12-03T10:54:59.258Z,99226.16
2018-12-03T11:00:01.774Z,99225.32
2018-12-03T11:07:15.267Z,99235.02
2018-12-03T11:12:17.749Z,99225.05
2018-12-03T11:17:20.299Z,99242.66
2018-12-03T11:22:22.773Z,99222.02
2018-12-03T11:27:25.306Z,99239.25
2018-12-03T11:32:27.681Z,99234.19
2018-12-03T11:37:30.681Z,99206.53
2018-12-03T11:42:36.494Z,99218.63
2018-12-03T11:47:38.943Z,99207.95
2018-12-03T11:52:41.400Z,99207.74
2018-12-03T11:57:43.882Z,99224.13
2018-12-03T12:02:46.671Z,99219.64
2018-12-03T12:07:49.194Z,99228.00
2018-12-03T12:12:51.861Z,99224.36
2018-12-03T12:17:54.526Z,99213.44
2018-12-03T12:22:57.267Z,99204.33
2018-12-03T12:28:00.055Z,99211.09
2018-12-03T12:33:02.530Z,99197.98
2018-12-03T12:38:05.402Z,99193.14
2018-12-03T12:43:08.086Z,99190.87
2018-12-03T12:48:10.470Z,99183.22
2018-12-03T12:53:12.912Z,99171.70
2018-12-03T12:58:15.326Z,99174.38
2018-12-03T13:03:18.077Z,99185.05
2018-12-03T13:08:20.542Z,99184.65
2018-12-03T13:13:24.129Z,99194.47
2018-12-03T13:18:26.894Z,99174.94
2018-12-03T13:23:29.418Z,99173.20
2018-12-03T13:28:32.331Z,99166.31
2018-12-03T13:33:35.320Z,99143.03
2018-12-03T13:38:37.727Z,99134.33
2018-12-03T13:43:40.216Z,99159.02
2018-12-03T13:48:43.076Z,99190.52
2018-12-03T13:53:45.633Z,99181.91
2018-12-03T13:58:48.194Z,99183.00
2018-12-03T14:03:50.683Z,99176.19
2018-12-03T14:09:08.258Z,99180.67
2018-12-03T14:14:55.411Z,99179.08
2018-12-03T14:19:59.636Z,99180.89
2018-12-03T14:25:02.100Z,99179.42
2018-12-03T14:30:05.187Z,99169.16
2018-12-03T14:35:11.101Z,99158.58
2018-12-03T14:40:13.574Z,99138.38
2018-12-03T14:45:16.074Z,99141.73
2018-12-03T14:50:18.579Z,99146.08
2018-12-03T14:55:21.097Z,99133.38
2018-12-03T15:00:23.802Z,99126.81
2018-12-03T15:05:26.399Z,99134.70
2018-12-03T15:10:29.067Z,99125.75
2018-12-03T15:15:31.462Z,99132.41
2018-12-03T15:20:33.926Z,99127.30
2018-12-03T15:25:36.365Z,99140.03
2018-12-03T15:30:38.791Z,99135.30
2018-12-03T15:35:41.242Z,99140.52
2018-12-03T15:40:43.738Z,99151.77
2018-12-03T15:45:46.186Z,99150.08
2018-12-03T15:50:48.957Z,99145.72
2018-12-03T15:55:51.419Z,99139.89
2018-12-03T16:00:53.931Z,99137.45
2018-12-03T16:05:56.328Z,99140.36
2018-12-03T16:10:58.830Z,99143.62
2018-12-03T16:16:01.311Z,99144.36
2018-12-03T16:21:03.801Z,99140.05
2018-12-03T16:26:06.277Z,99136.22
2018-12-03T16:31:08.663Z,99130.97
2018-12-03T16:36:11.240Z,99131.22
2018-12-03T16:41:13.736Z,99114.62
2018-12-03T16:46:16.102Z,99080.61
2018-12-03T16:51:18.470Z,99095.09
2018-12-03T16:56:20.913Z,99077.55
2018-12-03T17:01:23.359Z,99073.81
2018-12-03T17:06:25.747Z,99085.68
2018-12-03T17:11:28.250Z,99081.69
2018-12-03T17:16:30.786Z,99089.58
2018-12-03T17:22:18.047Z,99081.83
2018-12-03T17:27:20.498Z,99084.62
2018-12-03T17:32:22.921Z,99081.02
2018-12-03T17:37:25.395Z,99075.81
2018-12-03T17:42:28.150Z,99085.64
2018-12-03T17:47:30.698Z,99096.00
2018-12-03T17:52:33.174Z,99097.23
2018-12-03T17:57:35.791Z,99087.31
2018-12-03T18:02:44.989Z,99080.39
2018-12-03T18:07:47.411Z,99073.84
2018-12-03T18:12:49.806Z,99064.39
2018-12-03T18:17:52.420Z,99074.94
2018-12-03T18:22:55.231Z,99093.57
2018-12-03T18:28:00.194Z,99087.50
2018-12-03T18:33:03.612Z,99092.19
2018-12-03T18:38:05.214Z,99085.05
2018-12-03T18:43:07.710Z,99094.85
2018-12-03T18:48:12.027Z,99101.00
2018-12-03T18:53:21.262Z,99096.38
2018-12-03T18:58:36.962Z,99127.50
2018-12-03T19:03:39.490Z,99131.94
2018-12-03T19:08:41.907Z,99135.94
2018-12-03T19:13:44.410Z,99133.88
2018-12-03T19:18:46.919Z,99138.98
2018-12-03T19:23:49.409Z,99144.16
2018-12-03T19:28:51.796Z,99142.70
2018-12-03T19:33:54.165Z,99149.23
2018-12-03T19:38:56.724Z,99161.34
2018-12-03T19:43:59.110Z,99166.66
2018-12-03T19:49:01.648Z,99176.45
2018-12-03T19:54:04.536Z,99182.29
2018-12-03T19:59:07.174Z,99189.91
2018-12-03T20:04:30.082Z,99195.36
2018-12-03T20:09:32.611Z,99219.31
2018-12-03T20:14:35.160Z,99223.87
2018-12-03T20:19:37.622Z,99236.12
2018-12-03T20:24:40.005Z,99244.95
2018-12-03T20:29:56.713Z,99256.45
2018-12-03T20:35:08.507Z,99260.16
2018-12-03T20:40:17.396Z,99268.91
2018-12-03T20:45:30.489Z,99283.06
2018-12-03T20:50:55.105Z,99295.28
2018-12-03T20:55:59.234Z,99297.81
2018-12-03T21:01:01.902Z,99302.13
2018-12-03T21:06:04.559Z,99309.14
2018-12-03T21:11:07.283Z,99311.25
2018-12-03T21:16:09.710Z,99326.37
2018-12-03T21:21:13.601Z,99339.44
2018-12-03T21:26:16.315Z,99327.58
2018-12-03T21:31:18.836Z,99327.41
2018-12-03T21:36:21.324Z,99326.80
2018-12-03T21:41:24.226Z,99358.65
2018-12-03T21:46:26.727Z,99362.95
2018-12-03T21:51:29.424Z,99376.73
2018-12-03T21:56:31.871Z,99391.42
2018-12-03T22:01:34.309Z,99407.97
2018-12-03T22:06:36.983Z,99413.66
2018-12-03T22:11:39.469Z,99425.97
2018-12-03T22:16:41.916Z,99430.88
2018-12-03T22:21:44.379Z,99438.97
2018-12-03T22:26:46.971Z,99443.02
2018-12-03T22:31:49.363Z,99444.02
2018-12-03T22:36:51.931Z,99448.53
2018-12-03T22:41:54.845Z,99463.45
2018-12-03T22:46:58.799Z,99469.88
2018-12-03T22:52:01.423Z,99489.82
2018-12-03T22:57:04.796Z,99479.06
2018-12-03T23:02:07.331Z,99494.11
2018-12-03T23:07:09.927Z,99495.08
2018-12-03T23:12:12.589Z,99506.45
2018-12-03T23:17:15.194Z,99509.19
2018-12-03T23:22:17.587Z,99515.36
2018-12-03T23:27:20.235Z,99531.83
2018-12-03T23:32:22.982Z,99516.11
2018-12-03T23:37:25.408Z,99524.03
2018-12-03T23:42:28.369Z,99543.50
2018-12-03T23:47:30.762Z,99539.64
2018-12-03T23:52:33.201Z,99542.05
2018-12-03T23:57:35.625Z,99544.63
